Time;durP1;ratioP1;P1;durP2;ratioP2;P2;SDS_P1;SDS_P2;PMS_P1;PMS_P2;Temp;Humidity;BMP_temperature;BMP_pressure;BME280_temperature;BME280_humidity;BME280_pressure;Samples;Min_cycle;Max_cycle;Signal;HPM_P1;HPM_P2
2022/11/24 00:00:12;;;;;;;;;;;28.00;79.10;;;;;;5067371;28;20378;-76
2022/11/24 00:02:39;;;;;;;;;;;28.40;78.30;;;;;;5066676;28;20001;-75
2022/11/24 00:05:06;;;;;;;;;;;28.90;78.80;;;;;;5053739;28;20007;-74
2022/11/24 00:07:33;;;;;;;;;;;29.00;75.40;;;;;;5066742;28;19924;-73
2022/11/24 00:09:59;;;;;;;;;;;28.70;75.20;;;;;;5068054;28;19928;-73
2022/11/24 00:12:26;;;;;;;;;;;28.30;74.50;;;;;;5060176;28;19929;-72
2022/11/24 00:14:53;;;;;;;;;;;27.80;75.30;;;;;;5062220;28;20562;-75
2022/11/24 00:17:19;;;;;;;;;;;27.80;75.20;;;;;;5069311;28;19923;-72
2022/11/24 00:19:46;;;;;;;;;;;27.70;76.10;;;;;;5068461;28;19916;-73
2022/11/24 00:22:13;;;;;;;;;;;27.60;76.80;;;;;;5070532;28;20320;-74
2022/11/24 00:24:39;;;;;;;;;;;28.00;76.90;;;;;;5077686;28;20007;-76
2022/11/24 00:27:06;;;;;;;;;;;28.40;77.20;;;;;;5062208;28;19920;-77
2022/11/24 00:29:33;;;;;;;;;;;28.40;74.60;;;;;;5072062;28;19939;-73
2022/11/24 00:32:01;;;;;;;;;;;28.30;76.80;;;;;;5063195;28;19928;-74
2022/11/24 00:34:28;;;;;;;;;;;28.20;75.60;;;;;;5070130;28;20283;-75
2022/11/24 00:36:55;;;;;;;;;;;28.40;75.20;;;;;;5071225;28;19924;-74
2022/11/24 00:39:21;;;;;;;;;;;28.70;74.90;;;;;;5074254;28;20009;-74
2022/11/24 00:41:48;;;;;;;;;;;28.50;72.90;;;;;;5059368;28;20347;-74
2022/11/24 00:44:15;;;;;;;;;;;28.40;74.00;;;;;;5067619;28;19998;-75
2022/11/24 00:46:42;;;;;;;;;;;28.70;74.90;;;;;;5068978;28;19920;-75
2022/11/24 00:49:08;;;;;;;;;;;29.10;74.70;;;;;;5061617;28;19975;-75
2022/11/24 00:51:35;;;;;;;;;;;29.50;76.00;;;;;;5059886;28;19928;-73
2022/11/24 00:54:02;;;;;;;;;;;29.90;76.50;;;;;;5066973;28;19913;-72
2022/11/24 00:56:29;;;;;;;;;;;30.10;72.90;;;;;;5071867;28;19934;-72
2022/11/24 00:58:56;;;;;;;;;;;29.80;72.30;;;;;;5065605;28;19916;-72
2022/11/24 01:01:24;;;;;;;;;;;30.00;74.60;;;;;;5073564;28;19940;-72
2022/11/24 01:03:51;;;;;;;;;;;30.20;76.50;;;;;;5066591;28;19912;-73
2022/11/24 01:06:18;;;;;;;;;;;30.50;75.90;;;;;;5071081;28;19912;-72
2022/11/24 01:08:46;;;;;;;;;;;30.80;75.10;;;;;;5064910;28;19916;-73
2022/11/24 01:11:18;;;;;;;;;;;31.00;72.90;;;;;;5064070;28;20003;-73
2022/11/24 01:13:47;;;;;;;;;;;31.10;72.80;;;;;;5064865;28;19971;-73
2022/11/24 01:16:21;;;;;;;;;;;31.20;71.80;;;;;;5065641;28;19923;-73
2022/11/24 01:18:48;;;;;;;;;;;31.20;72.00;;;;;;5065484;28;19916;-72
2022/11/24 01:21:16;;;;;;;;;;;31.20;69.80;;;;;;5064035;28;19960;-71
2022/11/24 01:23:43;;;;;;;;;;;30.60;70.40;;;;;;5061981;28;20306;-72
2022/11/24 01:26:11;;;;;;;;;;;30.00;72.60;;;;;;5069993;28;20367;-75
2022/11/24 01:28:38;;;;;;;;;;;30.20;73.50;;;;;;5064796;28;19920;-73
2022/11/24 01:31:06;;;;;;;;;;;30.60;72.10;;;;;;5064320;28;19935;-73
2022/11/24 01:33:36;;;;;;;;;;;31.00;73.00;;;;;;5069685;28;19912;-74
2022/11/24 01:36:04;;;;;;;;;;;31.20;72.90;;;;;;5074355;28;19916;-75
2022/11/24 01:38:31;;;;;;;;;;;31.40;69.60;;;;;;5060937;28;20386;-74
2022/11/24 01:41:01;;;;;;;;;;;31.30;71.30;;;;;;5061007;28;19913;-73
2022/11/24 01:43:28;;;;;;;;;;;31.30;71.20;;;;;;5067349;28;19912;-73
2022/11/24 01:45:55;;;;;;;;;;;31.40;74.60;;;;;;5068541;28;19916;-76
2022/11/24 01:48:24;;;;;;;;;;;31.50;73.80;;;;;;5069678;28;19951;-75
2022/11/24 01:50:54;;;;;;;;;;;31.80;73.00;;;;;;5065240;28;19924;-73
2022/11/24 01:53:22;;;;;;;;;;;32.10;71.80;;;;;;5062633;28;19916;-76
2022/11/24 01:55:50;;;;;;;;;;;32.20;71.70;;;;;;5064094;28;19917;-75
2022/11/24 01:58:20;;;;;;;;;;;32.30;69.00;;;;;;5067333;28;19912;-75
2022/11/24 02:00:47;;;;;;;;;;;32.10;69.10;;;;;;5047834;28;19920;-76
2022/11/24 02:03:17;;;;;;;;;;;32.00;69.30;;;;;;5072139;28;19912;-73
2022/11/24 02:05:56;;;;;;;;;;;31.90;69.30;;;;;;5084160;28;20056;-74
2022/11/24 02:08:33;;;;;;;;;;;31.50;70.20;;;;;;5068548;28;19987;-74
2022/11/24 02:11:01;;;;;;;;;;;31.60;70.50;;;;;;5077628;28;20115;-75
2022/11/24 02:13:28;;;;;;;;;;;31.70;71.00;;;;;;5075607;28;19913;-73
2022/11/24 02:15:55;;;;;;;;;;;31.90;70.40;;;;;;5085627;28;19908;-73
2022/11/24 02:18:21;;;;;;;;;;;32.00;70.20;;;;;;5080111;28;19961;-74
2022/11/24 02:20:48;;;;;;;;;;;32.00;70.60;;;;;;5078063;28;19939;-74
2022/11/24 02:23:22;;;;;;;;;;;32.20;70.20;;;;;;5067948;28;19923;-74
2022/11/24 02:25:55;;;;;;;;;;;32.30;69.10;;;;;;5072121;28;19927;-73
2022/11/24 02:28:22;;;;;;;;;;;32.20;69.10;;;;;;5065313;28;20363;-75
2022/11/24 02:30:49;;;;;;;;;;;32.10;68.20;;;;;;5072734;28;19978;-75
2022/11/24 02:33:16;;;;;;;;;;;32.20;69.70;;;;;;5065788;28;19916;-75
2022/11/24 02:35:43;;;;;;;;;;;32.00;68.10;;;;;;5089577;28;19918;-74
2022/11/24 02:38:12;;;;;;;;;;;32.00;69.80;;;;;;5074613;28;19991;-76
2022/11/24 02:40:40;;;;;;;;;;;32.10;69.70;;;;;;5091581;28;19911;-75
2022/11/24 02:43:18;;;;;;;;;;;32.10;70.00;;;;;;5063308;28;19913;-74
2022/11/24 02:45:45;;;;;;;;;;;32.30;70.50;;;;;;5052995;28;19921;-72
2022/11/24 02:48:13;;;;;;;;;;;32.70;73.80;;;;;;5070648;28;19919;-75
2022/11/24 02:50:40;;;;;;;;;;;33.00;70.80;;;;;;5071017;28;19920;-74
2022/11/24 02:53:06;;;;;;;;;;;33.30;69.10;;;;;;5069448;28;19912;-73
2022/11/24 02:55:33;;;;;;;;;;;33.40;70.10;;;;;;5071835;28;19919;-74
2022/11/24 02:58:00;;;;;;;;;;;33.60;70.40;;;;;;5069929;28;19916;-74
2022/11/24 03:00:27;;;;;;;;;;;33.70;69.50;;;;;;5071549;28;20286;-75
2022/11/24 03:02:53;;;;;;;;;;;33.60;66.90;;;;;;5070560;28;19919;-73
2022/11/24 03:05:20;;;;;;;;;;;33.40;67.50;;;;;;5061955;28;20034;-73
2022/11/24 03:07:47;;;;;;;;;;;33.30;67.70;;;;;;5058914;28;20094;-76
2022/11/24 03:10:13;;;;;;;;;;;33.30;66.80;;;;;;5053992;28;19920;-75
2022/11/24 03:12:40;;;;;;;;;;;33.20;66.00;;;;;;5069231;28;19938;-73
2022/11/24 03:15:08;;;;;;;;;;;32.90;66.80;;;;;;5069299;28;20007;-75
2022/11/24 03:17:34;;;;;;;;;;;32.50;67.30;;;;;;5065363;28;20033;-75
2022/11/24 03:20:01;;;;;;;;;;;32.30;67.00;;;;;;5065113;28;20386;-72
2022/11/24 03:22:28;;;;;;;;;;;32.40;68.20;;;;;;5068707;28;20366;-74
2022/11/24 03:24:55;;;;;;;;;;;32.40;66.60;;;;;;5071546;28;19912;-75
2022/11/24 03:27:21;;;;;;;;;;;32.30;67.90;;;;;;5070610;28;19916;-74
2022/11/24 03:29:48;;;;;;;;;;;32.40;66.20;;;;;;5071441;28;20386;-78
2022/11/24 03:32:15;;;;;;;;;;;32.40;66.70;;;;;;5066949;28;20315;-76
2022/11/24 03:34:41;;;;;;;;;;;32.20;67.00;;;;;;5064521;28;19928;-76
2022/11/24 03:37:08;;;;;;;;;;;32.00;66.50;;;;;;5071557;28;20377;-75
2022/11/24 03:39:35;;;;;;;;;;;32.00;66.80;;;;;;5063524;28;19923;-76
2022/11/24 03:42:01;;;;;;;;;;;31.90;66.60;;;;;;5066650;28;19974;-75
2022/11/24 03:44:28;;;;;;;;;;;31.70;68.50;;;;;;5063752;28;19948;-75
2022/11/24 03:46:55;;;;;;;;;;;31.30;67.10;;;;;;5084158;28;20015;-76
2022/11/24 03:49:21;;;;;;;;;;;30.90;67.70;;;;;;5071546;28;19912;-75
2022/11/24 03:51:49;;;;;;;;;;;31.00;68.40;;;;;;5064432;28;20366;-76
2022/11/24 03:54:15;;;;;;;;;;;31.40;69.00;;;;;;5066161;28;20371;-77
2022/11/24 03:56:42;;;;;;;;;;;31.90;69.10;;;;;;5070417;28;19916;-76
2022/11/24 03:59:09;;;;;;;;;;;32.30;70.70;;;;;;5072392;28;20003;-77
2022/11/24 04:01:36;;;;;;;;;;;32.70;69.50;;;;;;5069502;28;19917;-75
2022/11/24 04:04:02;;;;;;;;;;;33.00;69.10;;;;;;5080714;28;19963;-75
2022/11/24 04:06:29;;;;;;;;;;;33.10;68.30;;;;;;5079296;28;20728;-74
2022/11/24 04:08:56;;;;;;;;;;;33.30;68.30;;;;;;5069741;28;20328;-75
2022/11/24 04:14:07;;;;;;;;;;;33.10;67.80;;;;;;5069065;28;19966;-76
2022/11/24 04:16:34;;;;;;;;;;;33.20;68.20;;;;;;5063030;28;19921;-74
2022/11/24 04:19:01;;;;;;;;;;;33.20;67.50;;;;;;5070455;28;20320;-75
2022/11/24 04:21:27;;;;;;;;;;;32.60;69.20;;;;;;5060680;28;19971;-78
2022/11/24 04:23:54;;;;;;;;;;;32.40;71.10;;;;;;5064625;28;19917;-77
2022/11/24 04:26:21;;;;;;;;;;;32.30;69.50;;;;;;5068097;28;19912;-75
2022/11/24 04:28:47;;;;;;;;;;;32.00;70.00;;;;;;5070470;28;19912;-74
2022/11/24 04:31:14;;;;;;;;;;;31.60;70.50;;;;;;5071886;28;19932;-77
2022/11/24 04:33:41;;;;;;;;;;;31.30;70.70;;;;;;5063841;28;20004;-78
2022/11/24 04:36:07;;;;;;;;;;;31.20;70.60;;;;;;5067089;28;19959;-79
2022/11/24 04:38:34;;;;;;;;;;;31.00;70.80;;;;;;5062196;28;19940;-76
2022/11/24 04:41:02;;;;;;;;;;;31.00;70.70;;;;;;5067160;28;19982;-75
2022/11/24 04:43:29;;;;;;;;;;;30.90;71.30;;;;;;5064694;28;20011;-77
2022/11/24 04:45:56;;;;;;;;;;;30.80;70.70;;;;;;5068243;28;19920;-77
2022/11/24 04:48:22;;;;;;;;;;;30.50;71.80;;;;;;5068105;28;19913;-76
2022/11/24 04:50:49;;;;;;;;;;;30.50;71.80;;;;;;5072298;28;20393;-78
2022/11/24 04:53:16;;;;;;;;;;;30.40;72.10;;;;;;5059726;28;19917;-77
2022/11/24 04:55:42;;;;;;;;;;;30.40;71.80;;;;;;5076781;28;19917;-75
2022/11/24 04:58:10;;;;;;;;;;;30.40;71.40;;;;;;5069379;28;19916;-74
2022/11/24 05:00:37;;;;;;;;;;;30.20;71.80;;;;;;5070175;28;19916;-74
2022/11/24 05:03:04;;;;;;;;;;;30.10;71.70;;;;;;5060992;28;19938;-74
2022/11/24 05:05:31;;;;;;;;;;;30.20;72.00;;;;;;5062282;28;19919;-74
2022/11/24 05:07:59;;;;;;;;;;;29.90;72.50;;;;;;5064233;28;19919;-74
2022/11/24 05:10:34;;;;;;;;;;;29.80;72.40;;;;;;5061323;28;19936;-76
2022/11/24 05:13:06;;;;;;;;;;;29.60;72.80;;;;;;5063014;28;19916;-75
2022/11/24 05:15:32;;;;;;;;;;;29.60;73.10;;;;;;5061379;28;19917;-74
2022/11/24 05:17:59;;;;;;;;;;;29.60;72.80;;;;;;5059177;28;19919;-74
2022/11/24 05:20:26;;;;;;;;;;;29.60;73.10;;;;;;5062207;28;19913;-74
2022/11/24 05:22:53;;;;;;;;;;;29.40;72.30;;;;;;5058888;28;19920;-73
2022/11/24 05:25:19;;;;;;;;;;;29.20;72.80;;;;;;5051235;28;20371;-80
2022/11/24 05:27:46;;;;;;;;;;;29.20;73.10;;;;;;5062191;28;20063;-74
2022/11/24 05:30:13;;;;;;;;;;;29.00;73.20;;;;;;5059160;28;19924;-73
2022/11/24 05:32:40;;;;;;;;;;;28.70;73.40;;;;;;5060069;28;19921;-72
2022/11/24 05:35:08;;;;;;;;;;;28.60;74.40;;;;;;5060884;28;20359;-72
2022/11/24 05:37:35;;;;;;;;;;;28.60;74.20;;;;;;5062267;28;21538;-73
2022/11/24 05:40:02;;;;;;;;;;;28.40;75.30;;;;;;5061756;28;19916;-74
2022/11/24 05:42:41;;;;;;;;;;;28.30;76.10;;;;;;5059591;28;19923;-72
2022/11/24 05:45:10;;;;;;;;;;;28.20;76.40;;;;;;5059688;28;19916;-73
2022/11/24 05:47:37;;;;;;;;;;;28.10;76.00;;;;;;5059068;28;19938;-73
2022/11/24 05:50:04;;;;;;;;;;;27.60;77.20;;;;;;5068857;28;19916;-73
2022/11/24 05:52:31;;;;;;;;;;;27.60;78.40;;;;;;5064902;28;19963;-74
2022/11/24 05:54:57;;;;;;;;;;;27.50;77.90;;;;;;5064301;28;19919;-73
2022/11/24 05:57:24;;;;;;;;;;;27.30;79.30;;;;;;5061342;28;20303;-73
2022/11/24 05:59:51;;;;;;;;;;;27.30;78.70;;;;;;5065571;28;19913;-75
2022/11/24 06:02:18;;;;;;;;;;;27.30;78.90;;;;;;5063118;28;19927;-76
2022/11/24 06:04:44;;;;;;;;;;;27.30;79.30;;;;;;5055275;28;20011;-74
2022/11/24 06:07:11;;;;;;;;;;;27.20;79.20;;;;;;5058148;28;20360;-76
2022/11/24 06:09:39;;;;;;;;;;;27.00;79.60;;;;;;5060635;28;20633;-72
2022/11/24 06:12:06;;;;;;;;;;;26.80;80.20;;;;;;5058682;28;19928;-76
2022/11/24 06:14:33;;;;;;;;;;;26.80;80.50;;;;;;5054897;28;19912;-75
2022/11/24 06:17:00;;;;;;;;;;;26.80;80.20;;;;;;5063487;28;20398;-72
2022/11/24 06:19:27;;;;;;;;;;;26.70;81.00;;;;;;5064408;28;19999;-74
2022/11/24 06:21:54;;;;;;;;;;;26.60;80.80;;;;;;5064940;28;19913;-71
2022/11/24 06:24:20;;;;;;;;;;;26.70;80.40;;;;;;5062505;28;20256;-73
2022/11/24 06:26:47;;;;;;;;;;;26.70;80.50;;;;;;5057066;28;20030;-74
2022/11/24 06:29:14;;;;;;;;;;;26.70;80.80;;;;;;5057843;28;19924;-72
2022/11/24 06:31:41;;;;;;;;;;;26.70;81.40;;;;;;5059228;28;19924;-75
2022/11/24 06:34:10;;;;;;;;;;;26.50;81.50;;;;;;5060214;28;19959;-76
2022/11/24 06:36:37;;;;;;;;;;;26.50;82.30;;;;;;5062156;28;19923;-80
2022/11/24 06:39:05;;;;;;;;;;;26.10;82.90;;;;;;5061939;28;20438;-80
2022/11/24 06:41:32;;;;;;;;;;;26.00;84.00;;;;;;5061477;28;19916;-77
2022/11/24 06:44:01;;;;;;;;;;;25.90;85.10;;;;;;5063187;28;19920;-80
2022/11/24 06:46:28;;;;;;;;;;;25.80;85.40;;;;;;5069540;28;20029;-78
2022/11/24 06:48:54;;;;;;;;;;;25.70;85.90;;;;;;5064054;28;19912;-79
2022/11/24 06:51:21;;;;;;;;;;;25.60;87.20;;;;;;5060792;28;20282;-75
2022/11/24 06:53:48;;;;;;;;;;;25.60;87.10;;;;;;5064495;28;19917;-77
2022/11/24 06:56:18;;;;;;;;;;;25.70;87.00;;;;;;5057240;28;19924;-80
2022/11/24 06:58:46;;;;;;;;;;;25.50;87.20;;;;;;5062370;28;19970;-81
2022/11/24 07:01:20;;;;;;;;;;;25.30;87.60;;;;;;5059722;28;19913;-84
2022/11/24 07:03:47;;;;;;;;;;;25.00;88.10;;;;;;5069835;28;19913;-86
2022/11/24 07:06:15;;;;;;;;;;;24.90;88.60;;;;;;5060154;28;19917;-84
2022/11/24 07:08:41;;;;;;;;;;;24.80;89.10;;;;;;5061786;28;19966;-77
2022/11/24 07:11:10;;;;;;;;;;;24.70;89.90;;;;;;5071787;28;20079;-81
2022/11/24 07:13:36;;;;;;;;;;;24.60;90.30;;;;;;5059643;28;19919;-81
2022/11/24 07:16:11;;;;;;;;;;;24.40;90.50;;;;;;5065791;28;20549;-81
2022/11/24 07:18:37;;;;;;;;;;;24.40;90.50;;;;;;5065820;28;19912;-81
2022/11/24 07:21:04;;;;;;;;;;;24.30;90.70;;;;;;5070364;28;20957;-79
2022/11/24 07:23:31;;;;;;;;;;;24.30;90.80;;;;;;5066880;28;19927;-81
2022/11/24 07:25:58;;;;;;;;;;;24.20;90.90;;;;;;5076364;28;19956;-79
2022/11/24 07:28:24;;;;;;;;;;;24.10;91.00;;;;;;5072310;28;19916;-78
2022/11/24 07:30:51;;;;;;;;;;;24.00;91.00;;;;;;5061963;28;19948;-82
2022/11/24 07:33:20;;;;;;;;;;;24.10;90.90;;;;;;5070650;28;20034;-80
2022/11/24 07:35:46;;;;;;;;;;;24.20;90.80;;;;;;5063457;28;19913;-79
2022/11/24 07:38:13;;;;;;;;;;;24.20;90.80;;;;;;5073433;28;19962;-84
2022/11/24 07:40:40;;;;;;;;;;;24.10;91.10;;;;;;5068972;28;20004;-85
2022/11/24 07:43:06;;;;;;;;;;;24.00;91.10;;;;;;5068392;28;19924;-83
2022/11/24 07:45:33;;;;;;;;;;;23.90;91.40;;;;;;5071088;28;20321;-82
2022/11/24 07:48:00;;;;;;;;;;;23.80;91.40;;;;;;5065913;28;19917;-84
2022/11/24 07:50:26;;;;;;;;;;;23.80;91.50;;;;;;5056737;28;20371;-84
2022/11/24 07:52:53;;;;;;;;;;;23.70;91.40;;;;;;5066761;28;19917;-83
2022/11/24 07:55:20;;;;;;;;;;;23.70;91.60;;;;;;5073181;28;19916;-84
2022/11/24 07:57:47;;;;;;;;;;;23.70;91.50;;;;;;5068746;28;19919;-82
2022/11/24 08:00:13;;;;;;;;;;;23.60;91.50;;;;;;5071746;28;20251;-81
2022/11/24 08:02:40;;;;;;;;;;;23.50;91.50;;;;;;5069965;28;19920;-78
2022/11/24 08:05:08;;;;;;;;;;;23.40;91.60;;;;;;5061247;28;19917;-79
2022/11/24 08:07:34;;;;;;;;;;;23.40;91.70;;;;;;5077388;28;19926;-79
2022/11/24 08:10:01;;;;;;;;;;;23.30;91.80;;;;;;5070180;28;19988;-80
2022/11/24 08:12:28;;;;;;;;;;;23.20;91.90;;;;;;5078801;28;19924;-84
2022/11/24 08:14:55;;;;;;;;;;;23.10;92.20;;;;;;5069643;28;20415;-81
2022/11/24 08:17:22;;;;;;;;;;;23.00;92.30;;;;;;5069228;28;20003;-81
2022/11/24 08:19:48;;;;;;;;;;;23.00;92.50;;;;;;5069981;28;19916;-80
2022/11/24 08:22:15;;;;;;;;;;;22.90;92.50;;;;;;5060145;28;19917;-78
2022/11/24 08:24:46;;;;;;;;;;;22.80;92.90;;;;;;5070656;28;19912;-76
2022/11/24 08:27:13;;;;;;;;;;;22.80;93.00;;;;;;5059516;28;20420;-81
2022/11/24 08:29:40;;;;;;;;;;;22.70;93.40;;;;;;5071068;28;20389;-78
2022/11/24 08:32:07;;;;;;;;;;;22.60;93.40;;;;;;5068771;28;19924;-81
2022/11/24 08:34:34;;;;;;;;;;;22.60;93.50;;;;;;5063503;28;20278;-81
2022/11/24 08:37:02;;;;;;;;;;;22.50;93.90;;;;;;5067677;28;20412;-76
2022/11/24 08:39:28;;;;;;;;;;;22.50;94.00;;;;;;5063435;28;19916;-82
2022/11/24 08:41:55;;;;;;;;;;;22.40;94.30;;;;;;5061762;28;20374;-77
2022/11/24 08:44:22;;;;;;;;;;;22.30;94.80;;;;;;5066760;28;19913;-79
2022/11/24 08:46:49;;;;;;;;;;;22.10;95.10;;;;;;5065847;28;20297;-81
2022/11/24 08:49:17;;;;;;;;;;;22.00;95.10;;;;;;5064241;28;19940;-81
2022/11/24 08:51:47;;;;;;;;;;;22.00;95.40;;;;;;5058162;28;20394;-79
2022/11/24 08:54:14;;;;;;;;;;;21.90;95.50;;;;;;5070556;28;19940;-79
2022/11/24 08:56:41;;;;;;;;;;;21.90;96.00;;;;;;5057007;28;19923;-77
2022/11/24 08:59:07;;;;;;;;;;;21.80;96.10;;;;;;5069236;28;19916;-81
2022/11/24 09:01:34;;;;;;;;;;;21.70;96.10;;;;;;5067550;28;19926;-80
2022/11/24 09:04:01;;;;;;;;;;;21.70;96.10;;;;;;5069706;28;19916;-82
2022/11/24 09:06:31;;;;;;;;;;;21.60;96.10;;;;;;5069597;28;19916;-81
2022/11/24 09:08:58;;;;;;;;;;;21.60;96.30;;;;;;5066989;28;19921;-79
2022/11/24 09:11:26;;;;;;;;;;;21.60;96.80;;;;;;5051489;28;20015;-80
2022/11/24 09:13:53;;;;;;;;;;;21.60;96.40;;;;;;5066380;28;20294;-79
2022/11/24 09:16:27;;;;;;;;;;;21.60;96.50;;;;;;5062286;28;19917;-81
2022/11/24 09:18:55;;;;;;;;;;;21.60;96.60;;;;;;5064169;28;19919;-75
2022/11/24 09:21:22;;;;;;;;;;;21.60;96.70;;;;;;5070689;28;19935;-83
2022/11/24 09:23:50;;;;;;;;;;;21.50;96.80;;;;;;5069100;28;19912;-81
2022/11/24 09:26:18;;;;;;;;;;;21.50;97.10;;;;;;5069496;28;19920;-83
2022/11/24 09:28:45;;;;;;;;;;;21.50;97.60;;;;;;5068690;28;19923;-82
2022/11/24 09:31:13;;;;;;;;;;;21.40;97.40;;;;;;5061254;28;20015;-85
2022/11/24 09:33:40;;;;;;;;;;;21.20;97.60;;;;;;5067195;28;20365;-84
2022/11/24 09:36:07;;;;;;;;;;;21.10;98.10;;;;;;5068512;28;20681;-82
2022/11/24 09:38:34;;;;;;;;;;;21.00;98.50;;;;;;5073138;28;19917;-89
2022/11/24 09:41:24;;;;;;;;;;;21.00;98.80;;;;;;5064657;28;20046;-82
2022/11/24 09:43:50;;;;;;;;;;;20.80;99.10;;;;;;5030745;28;19913;-84
2022/11/24 09:46:24;;;;;;;;;;;20.80;99.40;;;;;;5067497;28;19977;-81
2022/11/24 09:48:53;;;;;;;;;;;20.70;99.50;;;;;;5067710;28;20014;-81
2022/11/24 09:51:23;;;;;;;;;;;20.70;99.50;;;;;;5065157;28;19920;-82
2022/11/24 09:54:05;;;;;;;;;;;20.60;99.70;;;;;;5067778;28;19912;-82
2022/11/24 09:56:34;;;;;;;;;;;20.60;99.90;;;;;;5067069;28;19962;-83
2022/11/24 09:59:04;;;;;;;;;;;20.60;99.90;;;;;;5064500;28;19955;-84
2022/11/24 10:01:40;;;;;;;;;;;20.50;99.90;;;;;;5066947;28;19958;-81
2022/11/24 10:04:25;;;;;;;;;;;20.50;99.90;;;;;;5067408;28;19936;-82
2022/11/24 10:07:10;;;;;;;;;;;20.50;99.90;;;;;;5066858;28;20003;-84
2022/11/24 10:09:39;;;;;;;;;;;20.50;99.90;;;;;;5070508;28;19919;-82
2022/11/24 10:12:24;;;;;;;;;;;20.40;99.90;;;;;;5061732;28;19924;-82
2022/11/24 10:14:58;;;;;;;;;;;20.40;99.90;;;;;;5064721;28;20014;-82
2022/11/24 10:17:44;;;;;;;;;;;20.30;99.90;;;;;;5058818;28;19916;-82
2022/11/24 10:20:15;;;;;;;;;;;20.30;99.90;;;;;;5060308;28;20045;-83
2022/11/24 10:22:57;;;;;;;;;;;20.30;99.90;;;;;;5058991;28;19913;-86
2022/11/24 10:25:42;;;;;;;;;;;20.30;99.90;;;;;;5056362;28;19962;-80
2022/11/24 10:28:13;;;;;;;;;;;20.30;99.90;;;;;;5069068;28;19913;-80
2022/11/24 10:30:40;;;;;;;;;;;20.20;99.90;;;;;;5071479;28;19920;-76
2022/11/24 10:33:16;;;;;;;;;;;20.20;99.90;;;;;;5066869;28;20012;-74
2022/11/24 10:35:45;;;;;;;;;;;20.20;99.90;;;;;;5072316;28;19916;-77
2022/11/24 10:38:12;;;;;;;;;;;20.10;99.90;;;;;;5070313;28;19966;-75
2022/11/24 10:40:40;;;;;;;;;;;20.10;99.90;;;;;;5072475;28;19913;-77
2022/11/24 10:43:09;;;;;;;;;;;20.10;99.90;;;;;;5071132;28;20359;-78
2022/11/24 10:45:38;;;;;;;;;;;20.00;99.90;;;;;;5056379;28;19916;-78
2022/11/24 10:48:12;;;;;;;;;;;20.00;99.90;;;;;;5061983;28;19916;-76
2022/11/24 10:50:40;;;;;;;;;;;19.90;99.90;;;;;;5067493;28;19917;-77
2022/11/24 10:53:26;;;;;;;;;;;19.90;99.90;;;;;;5068126;28;19920;-77
2022/11/24 10:55:55;;;;;;;;;;;19.80;99.90;;;;;;5068975;28;19913;-78
2022/11/24 10:58:29;;;;;;;;;;;19.80;99.90;;;;;;5058225;28;20011;-75
2022/11/24 11:00:57;;;;;;;;;;;19.70;99.90;;;;;;5068973;28;19923;-76
2022/11/24 11:03:31;;;;;;;;;;;19.70;99.90;;;;;;5070598;28;19912;-75
2022/11/24 11:06:14;;;;;;;;;;;19.70;99.90;;;;;;5062013;28;19920;-77
2022/11/24 11:08:40;;;;;;;;;;;19.60;99.90;;;;;;5067973;28;19917;-76
2022/11/24 11:11:07;;;;;;;;;;;19.60;99.90;;;;;;5069895;28;20039;-76
2022/11/24 11:13:34;;;;;;;;;;;19.60;99.90;;;;;;5068095;28;19924;-75
2022/11/24 11:16:12;;;;;;;;;;;19.50;99.90;;;;;;5067639;28;19912;-76
2022/11/24 11:18:39;;;;;;;;;;;19.50;99.90;;;;;;5067304;28;19950;-74
2022/11/24 11:21:06;;;;;;;;;;;19.50;99.90;;;;;;5057178;28;20348;-74
2022/11/24 11:23:36;;;;;;;;;;;19.50;99.90;;;;;;5059881;28;19995;-74
2022/11/24 11:26:21;;;;;;;;;;;19.50;99.90;;;;;;5072726;28;19919;-75
2022/11/24 11:29:01;;;;;;;;;;;19.50;99.90;;;;;;5062082;28;19913;-76
2022/11/24 11:31:30;;;;;;;;;;;19.50;99.90;;;;;;5063418;28;20366;-74
2022/11/24 11:34:13;;;;;;;;;;;19.60;99.90;;;;;;5064573;28;20367;-75
2022/11/24 11:36:46;;;;;;;;;;;19.60;99.90;;;;;;5069978;28;19920;-75
2022/11/24 11:39:31;;;;;;;;;;;19.70;99.90;;;;;;5067585;28;20386;-75
2022/11/24 11:42:01;;;;;;;;;;;19.70;99.90;;;;;;5072956;28;19921;-74
2022/11/24 11:45:00;;;;;;;;;;;19.70;99.90;;;;;;5073109;28;19919;-77
2022/11/24 11:47:29;;;;;;;;;;;19.70;99.90;;;;;;5000073;28;19913;-75
2022/11/24 11:49:56;;;;;;;;;;;19.70;99.90;;;;;;5062431;28;20392;-74
2022/11/24 11:52:31;;;;;;;;;;;19.70;99.90;;;;;;5071309;28;19917;-74
2022/11/24 11:55:07;;;;;;;;;;;19.70;99.90;;;;;;5072877;28;19909;-76
2022/11/24 11:57:44;;;;;;;;;;;19.60;99.90;;;;;;5073003;28;19926;-73
2022/11/24 12:00:14;;;;;;;;;;;19.60;99.90;;;;;;5071587;28;19912;-74
2022/11/24 12:02:41;;;;;;;;;;;19.50;99.90;;;;;;5066295;28;19920;-77
2022/11/24 12:05:10;;;;;;;;;;;19.50;99.90;;;;;;5076466;28;19916;-76
2022/11/24 12:07:40;;;;;;;;;;;19.50;99.90;;;;;;5068395;28;19919;-78
2022/11/24 12:10:22;;;;;;;;;;;19.40;99.90;;;;;;5070228;28;19943;-79
2022/11/24 12:13:02;;;;;;;;;;;19.40;99.90;;;;;;5063666;28;20426;-77
2022/11/24 12:15:44;;;;;;;;;;;19.40;99.90;;;;;;5067605;28;20002;-74
2022/11/24 12:18:29;;;;;;;;;;;19.40;99.90;;;;;;5064455;28;19939;-77
2022/11/24 12:21:14;;;;;;;;;;;19.40;99.90;;;;;;5070693;28;19920;-77
2022/11/24 12:23:49;;;;;;;;;;;19.40;99.90;;;;;;5058736;28;20042;-76
2022/11/24 12:26:25;;;;;;;;;;;19.40;99.90;;;;;;5066321;28;20273;-74
2022/11/24 12:28:57;;;;;;;;;;;19.40;99.90;;;;;;5068719;28;20831;-78
2022/11/24 12:31:41;;;;;;;;;;;19.40;99.90;;;;;;5065348;28;19921;-77
2022/11/24 12:34:11;;;;;;;;;;;19.40;99.90;;;;;;5061673;28;20283;-78
2022/11/24 12:36:43;;;;;;;;;;;19.30;99.90;;;;;;5058320;28;19924;-77
2022/11/24 12:39:13;;;;;;;;;;;19.30;99.90;;;;;;5072129;28;19958;-77
2022/11/24 12:41:49;;;;;;;;;;;19.40;99.90;;;;;;5072055;28;19912;-77
2022/11/24 12:44:22;;;;;;;;;;;19.40;99.90;;;;;;5057069;28;19927;-76
2022/11/24 12:47:07;;;;;;;;;;;19.40;99.90;;;;;;5068376;28;19952;-76
2022/11/24 12:49:52;;;;;;;;;;;19.30;99.90;;;;;;5069639;28;20014;-77
2022/11/24 12:52:27;;;;;;;;;;;19.40;99.90;;;;;;5070408;28;19920;-76
2022/11/24 12:54:54;;;;;;;;;;;19.40;99.90;;;;;;5069012;28;19916;-75
2022/11/24 12:57:30;;;;;;;;;;;19.40;99.90;;;;;;5064985;28;19924;-75
2022/11/24 13:00:01;;;;;;;;;;;19.40;99.90;;;;;;5052594;28;20295;-75
2022/11/24 13:02:41;;;;;;;;;;;19.40;99.90;;;;;;5062974;28;20378;-77
2022/11/24 13:05:30;;;;;;;;;;;19.40;99.90;;;;;;5067556;28;19916;-77
2022/11/24 13:08:01;;;;;;;;;;;19.40;99.90;;;;;;5070944;28;19912;-76
2022/11/24 13:10:33;;;;;;;;;;;19.40;99.90;;;;;;5065739;28;19982;-77
2022/11/24 13:13:02;;;;;;;;;;;19.40;99.90;;;;;;5070451;28;19966;-77
2022/11/24 13:15:29;;;;;;;;;;;19.30;99.90;;;;;;5068997;28;19966;-79
2022/11/24 13:17:56;;;;;;;;;;;19.30;99.90;;;;;;5064967;28;19992;-76
2022/11/24 13:20:23;;;;;;;;;;;19.30;99.90;;;;;;5067050;28;19913;-78
2022/11/24 13:22:51;;;;;;;;;;;19.30;99.90;;;;;;5068161;28;19923;-78
2022/11/24 13:25:31;;;;;;;;;;;19.40;99.90;;;;;;5070365;28;20393;-77
2022/11/24 13:27:59;;;;;;;;;;;19.30;99.90;;;;;;5056533;28;19952;-76
2022/11/24 13:30:34;;;;;;;;;;;19.40;99.90;;;;;;5066675;28;19920;-77
2022/11/24 13:33:17;;;;;;;;;;;19.40;99.90;;;;;;5059380;28;19920;-77
2022/11/24 13:36:02;;;;;;;;;;;19.40;99.90;;;;;;5059154;28;19919;-77
2022/11/24 13:38:45;;;;;;;;;;;19.40;99.90;;;;;;5068677;28;19923;-78
2022/11/24 13:41:31;;;;;;;;;;;19.40;99.90;;;;;;5065152;28;20351;-76
2022/11/24 13:44:13;;;;;;;;;;;19.40;99.90;;;;;;5025380;28;19974;-77
2022/11/24 13:46:56;;;;;;;;;;;19.30;99.90;;;;;;5068140;28;19924;-78
2022/11/24 13:49:23;;;;;;;;;;;19.30;99.90;;;;;;5069607;28;19912;-77
2022/11/24 13:51:56;;;;;;;;;;;19.30;99.90;;;;;;5067295;28;19924;-76
2022/11/24 13:54:24;;;;;;;;;;;19.30;99.90;;;;;;5071222;28;19916;-77
2022/11/24 13:56:50;;;;;;;;;;;19.30;99.90;;;;;;5065912;28;19920;-77
2022/11/24 13:59:23;;;;;;;;;;;19.30;99.90;;;;;;5072571;28;19923;-76
2022/11/24 14:01:55;;;;;;;;;;;19.30;99.90;;;;;;5075154;28;19920;-75
2022/11/24 14:04:24;;;;;;;;;;;19.30;99.90;;;;;;5067488;28;19917;-75
2022/11/24 14:06:50;;;;;;;;;;;19.30;99.90;;;;;;5076734;28;20408;-76
2022/11/24 14:09:20;;;;;;;;;;;19.30;99.90;;;;;;5077140;28;19912;-76
2022/11/24 14:11:56;;;;;;;;;;;19.20;99.90;;;;;;5069633;28;20035;-74
2022/11/24 14:14:23;;;;;;;;;;;19.20;99.90;;;;;;5077724;28;19920;-76
2022/11/24 14:17:05;;;;;;;;;;;19.30;99.90;;;;;;5075780;28;19912;-77
2022/11/24 14:19:31;;;;;;;;;;;19.30;99.90;;;;;;5061561;28;19939;-77
2022/11/24 14:22:02;;;;;;;;;;;19.20;99.90;;;;;;5070412;28;20248;-77
2022/11/24 14:24:32;;;;;;;;;;;19.20;99.90;;;;;;5072354;28;20039;-78
2022/11/24 14:27:00;;;;;;;;;;;19.20;99.90;;;;;;5069579;28;20520;-78
2022/11/24 14:29:31;;;;;;;;;;;19.20;99.90;;;;;;5074900;28;19919;-80
2022/11/24 14:32:03;;;;;;;;;;;19.20;99.90;;;;;;5075096;28;20656;-78